sensor_id;sensor_type;location;lat;lon;timestamp;P1;durP1;ratioP1;P2;durP2;ratioP2
35110;SDS011;21290;50.158;8.658;2023-02-15T00:01:52;56.58;;;27.70;;
35110;SDS011;21290;50.158;8.658;2023-02-15T00:04:20;53.58;;;26.67;;
35110;SDS011;21290;50.158;8.658;2023-02-15T00:06:49;54.70;;;27.02;;
35110;SDS011;21290;50.158;8.658;2023-02-15T00:09:15;48.78;;;25.15;;
35110;SDS011;21290;50.158;8.658;2023-02-15T00:11:42;53.33;;;26.85;;
35110;SDS011;21290;50.158;8.658;2023-02-15T00:14:15;57.90;;;27.23;;
35110;SDS011;21290;50.158;8.658;2023-02-15T00:16:44;49.47;;;25.40;;
35110;SDS011;21290;50.158;8.658;2023-02-15T00:19:11;50.90;;;26.33;;
35110;SDS011;21290;50.158;8.658;2023-02-15T00:21:39;47.75;;;25.23;;
35110;SDS011;21290;50.158;8.658;2023-02-15T00:24:07;49.22;;;24.50;;
35110;SDS011;21290;50.158;8.658;2023-02-15T00:26:35;45.78;;;24.42;;
35110;SDS011;21290;50.158;8.658;2023-02-15T00:29:02;46.88;;;25.00;;
35110;SDS011;21290;50.158;8.658;2023-02-15T00:31:30;49.45;;;25.27;;
35110;SDS011;21290;50.158;8.658;2023-02-15T00:34:11;47.10;;;24.75;;
35110;SDS011;21290;50.158;8.658;2023-02-15T00:36:46;47.78;;;23.95;;
35110;SDS011;21290;50.158;8.658;2023-02-15T00:39:12;48.00;;;25.02;;
35110;SDS011;21290;50.158;8.658;2023-02-15T00:41:39;45.58;;;25.33;;
35110;SDS011;21290;50.158;8.658;2023-02-15T00:44:07;44.95;;;24.10;;
35110;SDS011;21290;50.158;8.658;2023-02-15T00:46:34;39.30;;;23.08;;
35110;SDS011;21290;50.158;8.658;2023-02-15T00:49:01;45.53;;;24.83;;
35110;SDS011;21290;50.158;8.658;2023-02-15T00:51:28;41.85;;;24.75;;
35110;SDS011;21290;50.158;8.658;2023-02-15T00:53:55;45.95;;;25.10;;
35110;SDS011;21290;50.158;8.658;2023-02-15T00:56:22;45.05;;;23.85;;
35110;SDS011;21290;50.158;8.658;2023-02-15T00:58:48;39.92;;;23.10;;
35110;SDS011;21290;50.158;8.658;2023-02-15T01:01:16;42.97;;;24.13;;
35110;SDS011;21290;50.158;8.658;2023-02-15T01:03:44;44.70;;;24.95;;
35110;SDS011;21290;50.158;8.658;2023-02-15T01:06:13;43.10;;;23.73;;
35110;SDS011;21290;50.158;8.658;2023-02-15T01:08:41;47.70;;;25.23;;
35110;SDS011;21290;50.158;8.658;2023-02-15T01:11:10;45.28;;;24.70;;
35110;SDS011;21290;50.158;8.658;2023-02-15T01:13:40;42.90;;;24.33;;
35110;SDS011;21290;50.158;8.658;2023-02-15T01:16:08;42.88;;;24.35;;
35110;SDS011;21290;50.158;8.658;2023-02-15T01:18:35;48.38;;;24.92;;
35110;SDS011;21290;50.158;8.658;2023-02-15T01:21:12;48.78;;;26.60;;
35110;SDS011;21290;50.158;8.658;2023-02-15T01:23:41;53.58;;;25.92;;
35110;SDS011;21290;50.158;8.658;2023-02-15T01:26:08;47.25;;;26.58;;
35110;SDS011;21290;50.158;8.658;2023-02-15T01:28:35;44.63;;;24.75;;
35110;SDS011;21290;50.158;8.658;2023-02-15T01:31:06;49.22;;;26.58;;
35110;SDS011;21290;50.158;8.658;2023-02-15T01:33:34;50.13;;;25.77;;
35110;SDS011;21290;50.158;8.658;2023-02-15T01:36:02;48.60;;;27.58;;
35110;SDS011;21290;50.158;8.658;2023-02-15T01:38:29;50.72;;;26.00;;
35110;SDS011;21290;50.158;8.658;2023-02-15T01:40:56;50.65;;;26.77;;
35110;SDS011;21290;50.158;8.658;2023-02-15T01:43:42;49.55;;;25.88;;
35110;SDS011;21290;50.158;8.658;2023-02-15T01:46:11;53.05;;;26.85;;
35110;SDS011;21290;50.158;8.658;2023-02-15T01:51:09;49.17;;;26.10;;
35110;SDS011;21290;50.158;8.658;2023-02-15T01:53:38;56.08;;;27.02;;
35110;SDS011;21290;50.158;8.658;2023-02-15T01:56:19;55.63;;;27.15;;
35110;SDS011;21290;50.158;8.658;2023-02-15T01:58:51;48.15;;;25.65;;
35110;SDS011;21290;50.158;8.658;2023-02-15T02:01:21;54.90;;;26.95;;
35110;SDS011;21290;50.158;8.658;2023-02-15T02:04:02;56.65;;;27.27;;
35110;SDS011;21290;50.158;8.658;2023-02-15T02:06:31;54.42;;;27.58;;
35110;SDS011;21290;50.158;8.658;2023-02-15T02:08:59;52.73;;;26.97;;
35110;SDS011;21290;50.158;8.658;2023-02-15T02:11:26;51.38;;;26.70;;
35110;SDS011;21290;50.158;8.658;2023-02-15T02:13:53;53.10;;;26.60;;
35110;SDS011;21290;50.158;8.658;2023-02-15T02:25:05;53.67;;;26.97;;
35110;SDS011;21290;50.158;8.658;2023-02-15T02:30:54;50.13;;;27.35;;
35110;SDS011;21290;50.158;8.658;2023-02-15T02:38:55;52.58;;;27.42;;
35110;SDS011;21290;50.158;8.658;2023-02-15T02:44:23;55.88;;;27.33;;
35110;SDS011;21290;50.158;8.658;2023-02-15T02:46:59;55.03;;;28.58;;
35110;SDS011;21290;50.158;8.658;2023-02-15T02:49:40;58.78;;;29.13;;
35110;SDS011;21290;50.158;8.658;2023-02-15T02:55:46;56.05;;;28.80;;
35110;SDS011;21290;50.158;8.658;2023-02-15T03:03:30;58.38;;;28.80;;
35110;SDS011;21290;50.158;8.658;2023-02-15T03:06:09;55.28;;;27.23;;
35110;SDS011;21290;50.158;8.658;2023-02-15T03:08:41;54.55;;;28.27;;
35110;SDS011;21290;50.158;8.658;2023-02-15T03:11:11;57.70;;;28.20;;
35110;SDS011;21290;50.158;8.658;2023-02-15T03:13:37;51.70;;;26.83;;
35110;SDS011;21290;50.158;8.658;2023-02-15T03:16:05;52.88;;;27.52;;
35110;SDS011;21290;50.158;8.658;2023-02-15T03:21:33;57.67;;;29.58;;
35110;SDS011;21290;50.158;8.658;2023-02-15T03:24:09;55.35;;;27.50;;
35110;SDS011;21290;50.158;8.658;2023-02-15T03:26:42;58.13;;;27.70;;
35110;SDS011;21290;50.158;8.658;2023-02-15T03:29:11;56.63;;;28.40;;
35110;SDS011;21290;50.158;8.658;2023-02-15T03:31:40;53.42;;;28.20;;
35110;SDS011;21290;50.158;8.658;2023-02-15T03:34:11;58.72;;;28.65;;
35110;SDS011;21290;50.158;8.658;2023-02-15T03:42:18;57.45;;;29.38;;
35110;SDS011;21290;50.158;8.658;2023-02-15T03:44:58;56.15;;;28.55;;
35110;SDS011;21290;50.158;8.658;2023-02-15T03:47:36;56.10;;;27.83;;
35110;SDS011;21290;50.158;8.658;2023-02-15T03:50:13;54.78;;;27.50;;
35110;SDS011;21290;50.158;8.658;2023-02-15T03:53:03;54.20;;;27.42;;
35110;SDS011;21290;50.158;8.658;2023-02-15T03:55:33;52.70;;;26.35;;
35110;SDS011;21290;50.158;8.658;2023-02-15T03:58:00;58.00;;;28.80;;
35110;SDS011;21290;50.158;8.658;2023-02-15T04:00:49;55.78;;;27.83;;
35110;SDS011;21290;50.158;8.658;2023-02-15T04:04:09;58.95;;;29.08;;
35110;SDS011;21290;50.158;8.658;2023-02-15T04:06:42;63.00;;;30.05;;
35110;SDS011;21290;50.158;8.658;2023-02-15T04:09:09;59.63;;;27.73;;
35110;SDS011;21290;50.158;8.658;2023-02-15T04:11:54;62.75;;;28.83;;
35110;SDS011;21290;50.158;8.658;2023-02-15T04:14:21;55.95;;;29.23;;
35110;SDS011;21290;50.158;8.658;2023-02-15T04:17:07;58.60;;;28.38;;
35110;SDS011;21290;50.158;8.658;2023-02-15T04:19:34;55.30;;;29.00;;
35110;SDS011;21290;50.158;8.658;2023-02-15T04:22:20;57.63;;;28.13;;
35110;SDS011;21290;50.158;8.658;2023-02-15T04:25:05;57.60;;;28.83;;
35110;SDS011;21290;50.158;8.658;2023-02-15T04:27:39;64.03;;;30.55;;
35110;SDS011;21290;50.158;8.658;2023-02-15T04:30:07;64.78;;;29.42;;
35110;SDS011;21290;50.158;8.658;2023-02-15T04:32:35;60.53;;;29.40;;
35110;SDS011;21290;50.158;8.658;2023-02-15T04:35:02;60.38;;;29.02;;
35110;SDS011;21290;50.158;8.658;2023-02-15T04:37:29;60.63;;;27.45;;
35110;SDS011;21290;50.158;8.658;2023-02-15T04:39:55;65.38;;;30.70;;
35110;SDS011;21290;50.158;8.658;2023-02-15T04:42:24;63.13;;;29.55;;
35110;SDS011;21290;50.158;8.658;2023-02-15T04:44:52;64.53;;;29.30;;
35110;SDS011;21290;50.158;8.658;2023-02-15T04:47:19;66.43;;;29.40;;
35110;SDS011;21290;50.158;8.658;2023-02-15T04:49:47;58.47;;;28.30;;
35110;SDS011;21290;50.158;8.658;2023-02-15T04:52:13;62.20;;;29.17;;
35110;SDS011;21290;50.158;8.658;2023-02-15T04:54:40;62.75;;;29.20;;
35110;SDS011;21290;50.158;8.658;2023-02-15T04:57:07;63.80;;;28.60;;
35110;SDS011;21290;50.158;8.658;2023-02-15T04:59:33;66.63;;;29.25;;
35110;SDS011;21290;50.158;8.658;2023-02-15T05:02:00;68.93;;;30.85;;
35110;SDS011;21290;50.158;8.658;2023-02-15T05:04:27;61.78;;;28.98;;
35110;SDS011;21290;50.158;8.658;2023-02-15T05:06:53;64.63;;;28.77;;
35110;SDS011;21290;50.158;8.658;2023-02-15T05:09:20;70.68;;;30.27;;
35110;SDS011;21290;50.158;8.658;2023-02-15T05:11:46;64.50;;;30.35;;
35110;SDS011;21290;50.158;8.658;2023-02-15T05:14:13;60.72;;;28.67;;
35110;SDS011;21290;50.158;8.658;2023-02-15T05:16:40;65.70;;;30.52;;
35110;SDS011;21290;50.158;8.658;2023-02-15T05:19:06;65.60;;;28.95;;
35110;SDS011;21290;50.158;8.658;2023-02-15T05:21:33;65.15;;;29.33;;
35110;SDS011;21290;50.158;8.658;2023-02-15T05:24:00;68.28;;;30.08;;
35110;SDS011;21290;50.158;8.658;2023-02-15T05:26:26;67.22;;;29.52;;
35110;SDS011;21290;50.158;8.658;2023-02-15T05:29:11;68.20;;;30.55;;
35110;SDS011;21290;50.158;8.658;2023-02-15T05:31:38;67.57;;;30.83;;
35110;SDS011;21290;50.158;8.658;2023-02-15T05:34:05;71.35;;;31.58;;
35110;SDS011;21290;50.158;8.658;2023-02-15T05:36:31;78.75;;;31.55;;
35110;SDS011;21290;50.158;8.658;2023-02-15T05:38:58;77.75;;;32.55;;
35110;SDS011;21290;50.158;8.658;2023-02-15T05:41:24;71.05;;;30.30;;
35110;SDS011;21290;50.158;8.658;2023-02-15T05:43:51;79.97;;;34.22;;
35110;SDS011;21290;50.158;8.658;2023-02-15T05:48:47;77.97;;;31.60;;
35110;SDS011;21290;50.158;8.658;2023-02-15T05:51:14;74.95;;;30.80;;
35110;SDS011;21290;50.158;8.658;2023-02-15T05:53:41;78.03;;;32.75;;
35110;SDS011;21290;50.158;8.658;2023-02-15T05:56:09;72.82;;;33.25;;
35110;SDS011;21290;50.158;8.658;2023-02-15T05:58:40;79.07;;;33.03;;
35110;SDS011;21290;50.158;8.658;2023-02-15T06:01:08;81.20;;;33.10;;
35110;SDS011;21290;50.158;8.658;2023-02-15T06:03:45;73.60;;;32.25;;
35110;SDS011;21290;50.158;8.658;2023-02-15T06:06:12;75.30;;;32.45;;
35110;SDS011;21290;50.158;8.658;2023-02-15T06:08:38;78.25;;;32.42;;
35110;SDS011;21290;50.158;8.658;2023-02-15T06:11:05;75.63;;;31.70;;
35110;SDS011;21290;50.158;8.658;2023-02-15T06:13:32;86.57;;;33.60;;
35110;SDS011;21290;50.158;8.658;2023-02-15T06:16:03;69.15;;;31.30;;
35110;SDS011;21290;50.158;8.658;2023-02-15T06:18:31;71.35;;;31.58;;
35110;SDS011;21290;50.158;8.658;2023-02-15T06:20:57;80.22;;;32.58;;
35110;SDS011;21290;50.158;8.658;2023-02-15T06:23:24;72.20;;;31.52;;
35110;SDS011;21290;50.158;8.658;2023-02-15T06:25:50;80.82;;;33.13;;
35110;SDS011;21290;50.158;8.658;2023-02-15T06:28:17;73.30;;;32.00;;
35110;SDS011;21290;50.158;8.658;2023-02-15T06:30:44;76.53;;;32.85;;
35110;SDS011;21290;50.158;8.658;2023-02-15T06:33:10;71.13;;;30.95;;
35110;SDS011;21290;50.158;8.658;2023-02-15T06:35:37;70.22;;;30.85;;
35110;SDS011;21290;50.158;8.658;2023-02-15T06:38:04;74.97;;;31.58;;
35110;SDS011;21290;50.158;8.658;2023-02-15T06:40:31;87.13;;;35.78;;
35110;SDS011;21290;50.158;8.658;2023-02-15T06:42:57;75.50;;;32.63;;
35110;SDS011;21290;50.158;8.658;2023-02-15T06:45:24;74.70;;;31.48;;
35110;SDS011;21290;50.158;8.658;2023-02-15T06:47:51;72.70;;;32.10;;
35110;SDS011;21290;50.158;8.658;2023-02-15T06:50:17;74.22;;;32.33;;
35110;SDS011;21290;50.158;8.658;2023-02-15T06:52:44;76.47;;;32.75;;
35110;SDS011;21290;50.158;8.658;2023-02-15T06:55:10;78.03;;;32.15;;
35110;SDS011;21290;50.158;8.658;2023-02-15T06:57:37;86.28;;;34.50;;
35110;SDS011;21290;50.158;8.658;2023-02-15T07:00:04;79.97;;;32.70;;
35110;SDS011;21290;50.158;8.658;2023-02-15T07:02:31;80.55;;;33.72;;
35110;SDS011;21290;50.158;8.658;2023-02-15T07:04:58;80.72;;;32.63;;
35110;SDS011;21290;50.158;8.658;2023-02-15T07:07:25;81.28;;;31.00;;
35110;SDS011;21290;50.158;8.658;2023-02-15T07:09:52;82.85;;;31.80;;
35110;SDS011;21290;50.158;8.658;2023-02-15T07:12:18;85.68;;;33.17;;
35110;SDS011;21290;50.158;8.658;2023-02-15T07:15:04;83.53;;;33.05;;
35110;SDS011;21290;50.158;8.658;2023-02-15T07:17:33;82.05;;;34.22;;
35110;SDS011;21290;50.158;8.658;2023-02-15T07:20:09;54.65;;;22.80;;
35110;SDS011;21290;50.158;8.658;2023-02-15T07:22:38;76.10;;;31.55;;
35110;SDS011;21290;50.158;8.658;2023-02-15T07:25:06;80.60;;;32.10;;
35110;SDS011;21290;50.158;8.658;2023-02-15T07:27:34;141.02;;;47.05;;
35110;SDS011;21290;50.158;8.658;2023-02-15T07:30:01;80.83;;;31.80;;
35110;SDS011;21290;50.158;8.658;2023-02-15T07:32:29;86.97;;;31.92;;
35110;SDS011;21290;50.158;8.658;2023-02-15T07:34:58;82.63;;;31.23;;
35110;SDS011;21290;50.158;8.658;2023-02-15T07:37:25;81.57;;;33.05;;
35110;SDS011;21290;50.158;8.658;2023-02-15T07:39:52;81.18;;;31.02;;
35110;SDS011;21290;50.158;8.658;2023-02-15T07:42:18;85.40;;;28.77;;
35110;SDS011;21290;50.158;8.658;2023-02-15T07:44:47;85.13;;;30.00;;
35110;SDS011;21290;50.158;8.658;2023-02-15T07:47:13;77.05;;;30.67;;
35110;SDS011;21290;50.158;8.658;2023-02-15T07:49:40;80.10;;;30.35;;
35110;SDS011;21290;50.158;8.658;2023-02-15T07:52:06;72.63;;;28.80;;
35110;SDS011;21290;50.158;8.658;2023-02-15T07:54:33;89.95;;;31.75;;
35110;SDS011;21290;50.158;8.658;2023-02-15T07:57:00;78.70;;;30.00;;
35110;SDS011;21290;50.158;8.658;2023-02-15T07:59:27;89.67;;;30.90;;
35110;SDS011;21290;50.158;8.658;2023-02-15T08:01:54;118.32;;;32.00;;
35110;SDS011;21290;50.158;8.658;2023-02-15T08:04:22;98.85;;;31.33;;
35110;SDS011;21290;50.158;8.658;2023-02-15T08:06:52;87.65;;;31.80;;
35110;SDS011;21290;50.158;8.658;2023-02-15T08:09:20;89.68;;;30.63;;
35110;SDS011;21290;50.158;8.658;2023-02-15T08:11:47;78.95;;;30.02;;
35110;SDS011;21290;50.158;8.658;2023-02-15T08:14:18;77.80;;;30.15;;
35110;SDS011;21290;50.158;8.658;2023-02-15T08:16:47;67.95;;;29.38;;
35110;SDS011;21290;50.158;8.658;2023-02-15T08:19:19;69.75;;;27.45;;
35110;SDS011;21290;50.158;8.658;2023-02-15T08:21:48;79.22;;;29.05;;
35110;SDS011;21290;50.158;8.658;2023-02-15T08:24:20;69.07;;;29.47;;
35110;SDS011;21290;50.158;8.658;2023-02-15T08:26:48;62.88;;;26.15;;
35110;SDS011;21290;50.158;8.658;2023-02-15T08:29:16;61.83;;;24.10;;
35110;SDS011;21290;50.158;8.658;2023-02-15T08:31:44;53.17;;;24.02;;
35110;SDS011;21290;50.158;8.658;2023-02-15T08:34:13;49.73;;;21.93;;
35110;SDS011;21290;50.158;8.658;2023-02-15T08:36:42;50.75;;;22.58;;
35110;SDS011;21290;50.158;8.658;2023-02-15T08:39:11;61.25;;;23.20;;
35110;SDS011;21290;50.158;8.658;2023-02-15T08:41:39;56.70;;;24.03;;
35110;SDS011;21290;50.158;8.658;2023-02-15T08:44:07;55.45;;;25.48;;
35110;SDS011;21290;50.158;8.658;2023-02-15T08:46:36;43.53;;;17.63;;
35110;SDS011;21290;50.158;8.658;2023-02-15T08:49:08;50.97;;;23.27;;
35110;SDS011;21290;50.158;8.658;2023-02-15T08:51:36;54.10;;;25.90;;
35110;SDS011;21290;50.158;8.658;2023-02-15T08:54:06;58.25;;;24.42;;
35110;SDS011;21290;50.158;8.658;2023-02-15T08:56:37;48.47;;;23.33;;
35110;SDS011;21290;50.158;8.658;2023-02-15T08:59:05;40.67;;;17.08;;
35110;SDS011;21290;50.158;8.658;2023-02-15T09:01:34;47.20;;;22.73;;
35110;SDS011;21290;50.158;8.658;2023-02-15T09:04:01;43.80;;;22.93;;
35110;SDS011;21290;50.158;8.658;2023-02-15T09:06:31;44.03;;;20.83;;
35110;SDS011;21290;50.158;8.658;2023-02-15T09:08:58;44.17;;;22.07;;
35110;SDS011;21290;50.158;8.658;2023-02-15T09:11:25;51.67;;;22.00;;
35110;SDS011;21290;50.158;8.658;2023-02-15T09:13:55;43.15;;;22.95;;
35110;SDS011;21290;50.158;8.658;2023-02-15T09:16:26;49.00;;;22.47;;
35110;SDS011;21290;50.158;8.658;2023-02-15T09:21:24;41.20;;;20.50;;
35110;SDS011;21290;50.158;8.658;2023-02-15T09:23:52;49.37;;;22.63;;
35110;SDS011;21290;50.158;8.658;2023-02-15T09:26:23;39.40;;;21.13;;
35110;SDS011;21290;50.158;8.658;2023-02-15T09:28:54;42.00;;;21.77;;
35110;SDS011;21290;50.158;8.658;2023-02-15T09:31:24;38.50;;;20.93;;
35110;SDS011;21290;50.158;8.658;2023-02-15T09:33:53;38.30;;;18.95;;
35110;SDS011;21290;50.158;8.658;2023-02-15T09:36:24;39.10;;;19.80;;
35110;SDS011;21290;50.158;8.658;2023-02-15T09:39:00;36.57;;;18.40;;
35110;SDS011;21290;50.158;8.658;2023-02-15T09:41:44;33.57;;;18.63;;
35110;SDS011;21290;50.158;8.658;2023-02-15T09:50:20;30.83;;;17.90;;
35110;SDS011;21290;50.158;8.658;2023-02-15T10:09:25;32.40;;;19.23;;
35110;SDS011;21290;50.158;8.658;2023-02-15T10:20:37;34.92;;;20.10;;
35110;SDS011;21290;50.158;8.658;2023-02-15T10:26:18;39.60;;;19.75;;
35110;SDS011;21290;50.158;8.658;2023-02-15T10:28:51;31.83;;;19.60;;
35110;SDS011;21290;50.158;8.658;2023-02-15T10:31:24;30.15;;;18.23;;
35110;SDS011;21290;50.158;8.658;2023-02-15T10:34:15;39.30;;;21.40;;
35110;SDS011;21290;50.158;8.658;2023-02-15T10:42:08;36.80;;;19.92;;
35110;SDS011;21290;50.158;8.658;2023-02-15T10:44:57;31.27;;;17.92;;
35110;SDS011;21290;50.158;8.658;2023-02-15T10:53:14;39.25;;;22.75;;
35110;SDS011;21290;50.158;8.658;2023-02-15T11:02:20;36.38;;;21.08;;
35110;SDS011;21290;50.158;8.658;2023-02-15T11:05:29;38.65;;;21.95;;
35110;SDS011;21290;50.158;8.658;2023-02-15T11:08:06;44.50;;;21.17;;
35110;SDS011;21290;50.158;8.658;2023-02-15T11:13:21;41.22;;;23.17;;
35110;SDS011;21290;50.158;8.658;2023-02-15T11:15:54;43.95;;;23.13;;
35110;SDS011;21290;50.158;8.658;2023-02-15T11:18:54;37.63;;;22.20;;
35110;SDS011;21290;50.158;8.658;2023-02-15T11:21:29;41.95;;;22.27;;
35110;SDS011;21290;50.158;8.658;2023-02-15T11:24:08;39.20;;;22.40;;
35110;SDS011;21290;50.158;8.658;2023-02-15T11:26:39;37.97;;;21.45;;
35110;SDS011;21290;50.158;8.658;2023-02-15T11:29:15;42.08;;;21.73;;
35110;SDS011;21290;50.158;8.658;2023-02-15T11:32:11;42.15;;;22.15;;
35110;SDS011;21290;50.158;8.658;2023-02-15T11:37:39;37.38;;;20.77;;
35110;SDS011;21290;50.158;8.658;2023-02-15T11:40:22;46.63;;;21.90;;
35110;SDS011;21290;50.158;8.658;2023-02-15T11:42:56;36.42;;;19.80;;
35110;SDS011;21290;50.158;8.658;2023-02-15T11:45:30;37.90;;;19.65;;
35110;SDS011;21290;50.158;8.658;2023-02-15T11:48:00;39.42;;;20.45;;
35110;SDS011;21290;50.158;8.658;2023-02-15T11:50:34;37.78;;;20.65;;
35110;SDS011;21290;50.158;8.658;2023-02-15T11:53:03;45.78;;;22.08;;
35110;SDS011;21290;50.158;8.658;2023-02-15T11:55:35;49.10;;;22.63;;
35110;SDS011;21290;50.158;8.658;2023-02-15T12:09:17;52.88;;;25.08;;
35110;SDS011;21290;50.158;8.658;2023-02-15T12:14:55;48.63;;;25.55;;
35110;SDS011;21290;50.158;8.658;2023-02-15T12:17:32;46.63;;;24.38;;
35110;SDS011;21290;50.158;8.658;2023-02-15T12:20:19;55.30;;;26.60;;
35110;SDS011;21290;50.158;8.658;2023-02-15T12:23:02;64.15;;;26.10;;
35110;SDS011;21290;50.158;8.658;2023-02-15T12:28:15;53.90;;;26.40;;
35110;SDS011;21290;50.158;8.658;2023-02-15T12:33:23;50.53;;;24.55;;
35110;SDS011;21290;50.158;8.658;2023-02-15T12:35:57;51.70;;;25.90;;
35110;SDS011;21290;50.158;8.658;2023-02-15T12:38:41;45.97;;;24.85;;
35110;SDS011;21290;50.158;8.658;2023-02-15T12:41:23;81.90;;;36.45;;
35110;SDS011;21290;50.158;8.658;2023-02-15T12:44:04;56.40;;;27.45;;
35110;SDS011;21290;50.158;8.658;2023-02-15T12:46:39;59.72;;;28.15;;
35110;SDS011;21290;50.158;8.658;2023-02-15T12:51:42;57.63;;;28.10;;
35110;SDS011;21290;50.158;8.658;2023-02-15T12:54:23;55.17;;;27.40;;
35110;SDS011;21290;50.158;8.658;2023-02-15T12:57:25;56.75;;;28.48;;
35110;SDS011;21290;50.158;8.658;2023-02-15T13:02:28;58.05;;;28.88;;
35110;SDS011;21290;50.158;8.658;2023-02-15T13:04:56;58.70;;;27.85;;
35110;SDS011;21290;50.158;8.658;2023-02-15T13:07:30;55.65;;;27.15;;
35110;SDS011;21290;50.158;8.658;2023-02-15T13:09:57;58.65;;;29.10;;
35110;SDS011;21290;50.158;8.658;2023-02-15T13:12:25;58.00;;;28.75;;
35110;SDS011;21290;50.158;8.658;2023-02-15T13:14:56;59.03;;;27.65;;
35110;SDS011;21290;50.158;8.658;2023-02-15T13:17:25;58.17;;;28.60;;
35110;SDS011;21290;50.158;8.658;2023-02-15T13:20:18;60.10;;;29.52;;
35110;SDS011;21290;50.158;8.658;2023-02-15T13:22:50;56.80;;;29.30;;
35110;SDS011;21290;50.158;8.658;2023-02-15T13:25:24;57.38;;;29.75;;
35110;SDS011;21290;50.158;8.658;2023-02-15T13:27:54;52.85;;;28.90;;
35110;SDS011;21290;50.158;8.658;2023-02-15T13:30:33;60.42;;;29.63;;
35110;SDS011;21290;50.158;8.658;2023-02-15T13:35:36;61.42;;;30.17;;
35110;SDS011;21290;50.158;8.658;2023-02-15T13:38:30;60.13;;;30.35;;
35110;SDS011;21290;50.158;8.658;2023-02-15T13:41:15;59.40;;;30.80;;
35110;SDS011;21290;50.158;8.658;2023-02-15T13:43:48;64.82;;;30.25;;
35110;SDS011;21290;50.158;8.658;2023-02-15T13:46:41;64.15;;;30.75;;
35110;SDS011;21290;50.158;8.658;2023-02-15T13:49:36;63.03;;;31.38;;
35110;SDS011;21290;50.158;8.658;2023-02-15T13:52:24;81.22;;;36.53;;
35110;SDS011;21290;50.158;8.658;2023-02-15T14:09:28;60.88;;;31.20;;
35110;SDS011;21290;50.158;8.658;2023-02-15T14:12:06;60.30;;;31.77;;
35110;SDS011;21290;50.158;8.658;2023-02-15T14:15:13;68.10;;;31.58;;
35110;SDS011;21290;50.158;8.658;2023-02-15T14:29:03;66.07;;;35.00;;
35110;SDS011;21290;50.158;8.658;2023-02-15T14:31:57;66.20;;;33.38;;
35110;SDS011;21290;50.158;8.658;2023-02-15T14:34:32;58.55;;;32.97;;
35110;SDS011;21290;50.158;8.658;2023-02-15T14:43:30;72.95;;;33.13;;
35110;SDS011;21290;50.158;8.658;2023-02-15T14:48:53;75.80;;;34.65;;
35110;SDS011;21290;50.158;8.658;2023-02-15T14:56:43;68.57;;;33.28;;
35110;SDS011;21290;50.158;8.658;2023-02-15T15:01:37;69.75;;;34.47;;
35110;SDS011;21290;50.158;8.658;2023-02-15T15:04:09;75.35;;;35.10;;
35110;SDS011;21290;50.158;8.658;2023-02-15T15:06:42;76.95;;;36.20;;
35110;SDS011;21290;50.158;8.658;2023-02-15T15:09:14;73.70;;;35.85;;
35110;SDS011;21290;50.158;8.658;2023-02-15T15:11:52;81.40;;;37.55;;
35110;SDS011;21290;50.158;8.658;2023-02-15T15:17:02;67.45;;;34.17;;
35110;SDS011;21290;50.158;8.658;2023-02-15T15:19:56;75.28;;;36.03;;
35110;SDS011;21290;50.158;8.658;2023-02-15T15:22:25;73.50;;;35.08;;
35110;SDS011;21290;50.158;8.658;2023-02-15T15:24:54;71.88;;;35.17;;
35110;SDS011;21290;50.158;8.658;2023-02-15T15:49:54;72.75;;;35.20;;
35110;SDS011;21290;50.158;8.658;2023-02-15T15:52:23;70.68;;;33.15;;
35110;SDS011;21290;50.158;8.658;2023-02-15T15:54:56;75.13;;;33.67;;
35110;SDS011;21290;50.158;8.658;2023-02-15T15:57:29;75.13;;;35.72;;
35110;SDS011;21290;50.158;8.658;2023-02-15T15:59:59;123.22;;;56.70;;
35110;SDS011;21290;50.158;8.658;2023-02-15T16:02:26;77.20;;;37.25;;
35110;SDS011;21290;50.158;8.658;2023-02-15T16:04:53;72.75;;;35.25;;
35110;SDS011;21290;50.158;8.658;2023-02-15T16:07:25;73.28;;;36.50;;
35110;SDS011;21290;50.158;8.658;2023-02-15T16:09:59;75.38;;;36.25;;
35110;SDS011;21290;50.158;8.658;2023-02-15T16:12:27;70.60;;;34.97;;
35110;SDS011;21290;50.158;8.658;2023-02-15T16:15:15;74.15;;;34.83;;
35110;SDS011;21290;50.158;8.658;2023-02-15T16:18:01;81.25;;;37.08;;
35110;SDS011;21290;50.158;8.658;2023-02-15T16:20:30;81.57;;;37.60;;
35110;SDS011;21290;50.158;8.658;2023-02-15T16:23:16;88.40;;;37.25;;
35110;SDS011;21290;50.158;8.658;2023-02-15T16:28:50;79.07;;;37.10;;
35110;SDS011;21290;50.158;8.658;2023-02-15T16:31:19;86.03;;;39.38;;
35110;SDS011;21290;50.158;8.658;2023-02-15T16:33:54;79.57;;;37.63;;
35110;SDS011;21290;50.158;8.658;2023-02-15T16:36:22;81.50;;;38.67;;
35110;SDS011;21290;50.158;8.658;2023-02-15T16:41:21;95.38;;;40.67;;
35110;SDS011;21290;50.158;8.658;2023-02-15T16:43:53;84.35;;;39.08;;
35110;SDS011;21290;50.158;8.658;2023-02-15T16:48:49;87.53;;;39.50;;
35110;SDS011;21290;50.158;8.658;2023-02-15T16:51:18;94.43;;;41.60;;
35110;SDS011;21290;50.158;8.658;2023-02-15T16:53:48;96.10;;;41.67;;
35110;SDS011;21290;50.158;8.658;2023-02-15T16:56:15;97.13;;;42.78;;
35110;SDS011;21290;50.158;8.658;2023-02-15T16:58:44;101.50;;;42.83;;
35110;SDS011;21290;50.158;8.658;2023-02-15T17:01:12;98.22;;;43.25;;
35110;SDS011;21290;50.158;8.658;2023-02-15T17:06:21;98.30;;;42.92;;
35110;SDS011;21290;50.158;8.658;2023-02-15T17:08:53;93.32;;;41.92;;
35110;SDS011;21290;50.158;8.658;2023-02-15T17:11:35;103.18;;;47.55;;
35110;SDS011;21290;50.158;8.658;2023-02-15T17:16:33;89.80;;;43.28;;
35110;SDS011;21290;50.158;8.658;2023-02-15T17:21:37;97.32;;;42.20;;
35110;SDS011;21290;50.158;8.658;2023-02-15T17:24:13;101.78;;;44.88;;
35110;SDS011;21290;50.158;8.658;2023-02-15T17:26:44;96.20;;;42.70;;
35110;SDS011;21290;50.158;8.658;2023-02-15T17:29:22;98.22;;;45.70;;
35110;SDS011;21290;50.158;8.658;2023-02-15T17:31:53;100.43;;;46.50;;
35110;SDS011;21290;50.158;8.658;2023-02-15T17:37:23;102.93;;;46.72;;
35110;SDS011;21290;50.158;8.658;2023-02-15T17:39:52;97.93;;;45.88;;
35110;SDS011;21290;50.158;8.658;2023-02-15T17:42:19;98.38;;;45.80;;
35110;SDS011;21290;50.158;8.658;2023-02-15T17:44:45;101.43;;;46.75;;
35110;SDS011;21290;50.158;8.658;2023-02-15T17:47:16;100.13;;;45.03;;
35110;SDS011;21290;50.158;8.658;2023-02-15T17:49:45;100.20;;;45.42;;
35110;SDS011;21290;50.158;8.658;2023-02-15T17:52:15;92.13;;;44.10;;
35110;SDS011;21290;50.158;8.658;2023-02-15T17:54:43;94.28;;;45.00;;
35110;SDS011;21290;50.158;8.658;2023-02-15T17:57:29;101.30;;;44.50;;
35110;SDS011;21290;50.158;8.658;2023-02-15T17:59:56;100.35;;;46.90;;
35110;SDS011;21290;50.158;8.658;2023-02-15T18:02:41;105.28;;;46.90;;
35110;SDS011;21290;50.158;8.658;2023-02-15T18:05:27;102.10;;;45.42;;
35110;SDS011;21290;50.158;8.658;2023-02-15T18:08:13;116.78;;;49.40;;
35110;SDS011;21290;50.158;8.658;2023-02-15T18:10:59;107.53;;;46.75;;
35110;SDS011;21290;50.158;8.658;2023-02-15T18:13:45;108.32;;;49.28;;
35110;SDS011;21290;50.158;8.658;2023-02-15T18:16:13;125.38;;;54.85;;
35110;SDS011;21290;50.158;8.658;2023-02-15T18:18:41;108.72;;;47.20;;
35110;SDS011;21290;50.158;8.658;2023-02-15T18:21:10;79.67;;;36.10;;
35110;SDS011;21290;50.158;8.658;2023-02-15T18:23:37;104.22;;;46.50;;
35110;SDS011;21290;50.158;8.658;2023-02-15T18:26:04;97.18;;;45.17;;